createdAt,value
2023-01-22T00:01:25.236Z,99706.47
2023-01-22T00:03:54.888Z,99703.75
2023-01-22T00:06:23.873Z,99707.53
2023-01-22T00:08:52.803Z,99705.88
2023-01-22T00:11:22.769Z,99705.63
2023-01-22T00:13:51.216Z,99701.03
2023-01-22T00:16:20.401Z,99699.38
2023-01-22T00:18:49.123Z,99706.09
2023-01-22T00:21:18.124Z,99707.13
2023-01-22T00:23:46.551Z,99704.63
2023-01-22T00:26:17.852Z,99706.72
2023-01-22T00:28:47.970Z,99703.38
2023-01-22T00:31:18.247Z,99706.91
2023-01-22T00:33:48.141Z,99704.41
2023-01-22T00:36:20.066Z,99698.13
2023-01-22T00:38:48.927Z,99709.00
2023-01-22T00:41:18.667Z,99704.00
2023-01-22T00:43:50.650Z,99712.38
2023-01-22T00:46:22.832Z,99704.63
2023-01-22T00:48:51.325Z,99710.25
2023-01-22T00:51:20.042Z,99715.94
2023-01-22T00:53:48.775Z,99717.56
2023-01-22T00:56:17.940Z,99718.41
2023-01-22T00:58:47.815Z,99722.59
2023-01-22T01:01:16.848Z,99720.72
2023-01-22T01:03:45.383Z,99725.13
2023-01-22T01:06:18.309Z,99726.78
2023-01-22T01:08:47.803Z,99740.13
2023-01-22T01:11:21.533Z,99733.66
2023-01-22T01:13:53.232Z,99741.44
2023-01-22T01:16:26.712Z,99750.63
2023-01-22T01:18:58.359Z,99753.97
2023-01-22T01:21:26.897Z,99754.56
2023-01-22T01:23:56.218Z,99754.38
2023-01-22T01:26:25.142Z,99741.59
2023-01-22T01:28:54.939Z,99744.31
2023-01-22T01:31:26.311Z,99742.44
2023-01-22T01:33:55.095Z,99763.34
2023-01-22T01:36:48.681Z,99770.47
2023-01-22T01:39:14.355Z,99775.69
2023-01-22T01:41:42.806Z,99781.13
2023-01-22T01:44:16.609Z,99772.78
2023-01-22T01:46:50.812Z,99753.75
2023-01-22T01:49:27.346Z,99735.75
2023-01-22T01:52:01.009Z,99734.09
2023-01-22T01:54:30.242Z,99729.69
2023-01-22T01:57:07.327Z,99735.34
2023-01-22T01:59:38.054Z,99737.47
2023-01-22T02:02:07.809Z,99742.91
2023-01-22T02:04:36.274Z,99761.47
2023-01-22T02:07:06.159Z,99753.94
2023-01-22T02:09:34.589Z,99744.50
2023-01-22T02:12:04.215Z,99743.72
2023-01-22T02:14:34.895Z,99728.44
2023-01-22T02:17:11.595Z,99741.78
2023-01-22T02:19:40.622Z,99745.34
2023-01-22T02:22:15.737Z,99733.88
2023-01-22T02:24:44.195Z,99731.38
2023-01-22T02:27:13.248Z,99747.03
2023-01-22T02:29:42.384Z,99745.38
2023-01-22T02:32:10.893Z,99750.81
2023-01-22T02:34:39.530Z,99751.06
2023-01-22T02:37:08.061Z,99749.97
2023-01-22T02:39:37.876Z,99755.41
2023-01-22T02:42:07.040Z,99744.53
2023-01-22T02:44:35.434Z,99750.22
2023-01-22T02:47:04.124Z,99748.31
2023-01-22T02:49:32.637Z,99749.59
2023-01-22T02:52:01.021Z,99765.91
2023-01-22T02:54:29.457Z,99750.84
2023-01-22T02:56:59.201Z,99765.06
2023-01-22T02:59:27.848Z,99743.31
2023-01-22T03:01:57.155Z,99738.09
2023-01-22T03:04:26.036Z,99733.47
2023-01-22T03:06:54.445Z,99724.50
2023-01-22T03:09:22.863Z,99720.06
2023-01-22T03:11:51.347Z,99716.75
2023-01-22T03:14:38.422Z,99718.63
2023-01-22T03:17:25.445Z,99727.00
2023-01-22T03:20:11.139Z,99725.53
2023-01-22T03:22:39.619Z,99729.91
2023-01-22T03:25:09.187Z,99730.75
2023-01-22T03:27:38.089Z,99728.03
2023-01-22T03:30:10.828Z,99733.47
2023-01-22T03:32:39.206Z,99723.44
2023-01-22T03:35:08.336Z,99715.28
2023-01-22T03:37:36.738Z,99717.16
2023-01-22T03:40:06.138Z,99725.13
2023-01-22T03:42:34.541Z,99722.19
2023-01-22T03:45:03.013Z,99723.00
2023-01-22T03:47:32.726Z,99727.38
2023-01-22T03:50:01.117Z,99721.94
2023-01-22T03:52:29.498Z,99737.03
2023-01-22T03:54:57.852Z,99725.94
2023-01-22T03:57:26.219Z,99730.56
2023-01-22T03:59:54.626Z,99732.44
2023-01-22T04:02:23.024Z,99734.09
2023-01-22T04:04:52.794Z,99732.44
2023-01-22T04:07:21.175Z,99733.28
2023-01-22T04:09:49.573Z,99733.28
2023-01-22T04:12:17.987Z,99734.09
2023-01-22T04:14:46.357Z,99732.44
2023-01-22T04:17:14.722Z,99734.94
2023-01-22T04:19:43.104Z,99736.63
2023-01-22T04:22:12.861Z,99740.16
2023-01-22T04:24:41.286Z,99733.06
2023-01-22T04:27:09.653Z,99724.28
2023-01-22T04:29:38.026Z,99727.84
2023-01-22T04:32:06.844Z,99731.38
2023-01-22T04:34:35.239Z,99738.72
2023-01-22T04:37:03.603Z,99731.59
2023-01-22T04:39:33.542Z,99737.25
2023-01-22T04:42:01.919Z,99731.81
2023-01-22T04:44:30.247Z,99730.09
2023-01-22T04:46:58.704Z,99731.81
2023-01-22T04:49:27.084Z,99734.53
2023-01-22T04:51:56.379Z,99740.59
2023-01-22T04:54:24.737Z,99737.88
2023-01-22T04:56:54.695Z,99728.66
2023-01-22T04:59:23.075Z,99726.78
2023-01-22T05:01:52.835Z,99736.63
2023-01-22T05:04:21.821Z,99736.38
2023-01-22T05:06:50.268Z,99743.50
2023-01-22T05:09:19.229Z,99743.28
2023-01-22T05:11:47.659Z,99742.25
2023-01-22T05:14:17.666Z,99746.84
2023-01-22T05:16:47.089Z,99752.91
2023-01-22T05:19:15.975Z,99755.63
2023-01-22T05:21:44.368Z,99760.84
2023-01-22T05:24:12.988Z,99764.38
2023-01-22T05:26:41.374Z,99762.50
2023-01-22T05:29:09.752Z,99761.44
2023-01-22T05:31:39.669Z,99770.44
2023-01-22T05:34:08.095Z,99762.28
2023-01-22T05:36:36.514Z,99766.06
2023-01-22T05:39:05.002Z,99769.81
2023-01-22T05:41:33.349Z,99772.78
2023-01-22T05:44:02.992Z,99771.94
2023-01-22T05:46:31.609Z,99776.34
2023-01-22T05:49:01.492Z,99769.22
2023-01-22T05:51:32.248Z,99776.53
2023-01-22T05:54:01.137Z,99772.16
2023-01-22T05:56:29.542Z,99790.34
2023-01-22T05:58:57.961Z,99780.50
2023-01-22T06:01:27.071Z,99769.63
2023-01-22T06:03:55.471Z,99777.78
2023-01-22T06:06:25.349Z,99774.44
2023-01-22T06:08:53.718Z,99784.72
2023-01-22T06:11:22.367Z,99775.09
2023-01-22T06:13:51.171Z,99776.31
2023-01-22T06:16:19.602Z,99779.25
2023-01-22T06:18:47.957Z,99780.31
2023-01-22T06:21:17.033Z,99780.53
2023-01-22T06:23:46.776Z,99782.63
2023-01-22T06:26:15.172Z,99774.66
2023-01-22T06:28:43.787Z,99776.56
2023-01-22T06:31:12.566Z,99784.91
2023-01-22T06:33:41.574Z,99781.56
2023-01-22T06:36:10.967Z,99778.03
2023-01-22T06:38:39.726Z,99773.66
2023-01-22T06:41:10.497Z,99779.09
2023-01-22T06:43:39.201Z,99784.75
2023-01-22T06:46:07.647Z,99789.34
2023-01-22T06:48:36.049Z,99790.38
2023-01-22T06:51:04.806Z,99791.22
2023-01-22T06:53:33.220Z,99790.19
2023-01-22T06:56:01.924Z,99792.91
2023-01-22T06:58:31.749Z,99794.78
2023-01-22T07:01:02.775Z,99796.44
2023-01-22T07:03:31.361Z,99796.25
2023-01-22T07:06:01.784Z,99797.88
2023-01-22T07:08:32.834Z,99800.59
2023-01-22T07:11:01.859Z,99808.75
2023-01-22T07:13:31.725Z,99806.03
2023-01-22T07:16:03.872Z,99807.09
2023-01-22T07:18:32.662Z,99808.97
2023-01-22T07:21:03.208Z,99817.13
2023-01-22T07:23:31.941Z,99816.06
2023-01-22T07:26:00.382Z,99824.22
2023-01-22T07:28:28.907Z,99820.69
2023-01-22T07:30:58.777Z,99823.59
2023-01-22T07:33:27.210Z,99826.31
2023-01-22T07:35:57.238Z,99827.38
2023-01-22T07:38:28.279Z,99830.09
2023-01-22T07:41:01.582Z,99831.97
2023-01-22T07:43:30.120Z,99839.91
2023-01-22T07:46:02.608Z,99839.28
2023-01-22T07:48:31.355Z,99837.41
2023-01-22T07:51:04.096Z,99842.84
2023-01-22T07:53:33.410Z,99843.69
2023-01-22T07:56:03.150Z,99837.41
2023-01-22T07:58:31.510Z,99839.28
2023-01-22T08:01:01.453Z,99845.56
2023-01-22T08:03:33.965Z,99840.97
2023-01-22T08:06:02.821Z,99846.41
2023-01-22T08:08:31.188Z,99850.78
2023-01-22T08:11:00.483Z,99854.34
2023-01-22T08:13:29.029Z,99853.50
2023-01-22T08:15:57.445Z,99856.03
2023-01-22T08:18:27.330Z,99849.75
2023-01-22T08:20:55.748Z,99856.03
2023-01-22T08:23:24.186Z,99860.41
2023-01-22T08:25:52.578Z,99866.06
2023-01-22T08:28:21.257Z,99865.84
2023-01-22T08:30:50.085Z,99867.72
2023-01-22T08:33:19.103Z,99866.69
2023-01-22T08:35:50.128Z,99863.75
2023-01-22T08:38:18.561Z,99869.19
2023-01-22T08:40:50.992Z,99862.94
2023-01-22T08:43:19.836Z,99871.09
2023-01-22T08:45:50.483Z,99865.66
2023-01-22T08:48:19.109Z,99879.25
2023-01-22T08:50:48.924Z,99874.63
2023-01-22T08:53:17.326Z,99877.16
2023-01-22T08:55:51.071Z,99879.03
2023-01-22T08:58:21.030Z,99877.16
2023-01-22T09:00:49.542Z,99882.59
2023-01-22T09:03:18.080Z,99883.22
2023-01-22T09:05:46.485Z,99886.53
2023-01-22T09:08:16.232Z,99893.66
2023-01-22T09:10:45.697Z,99899.72
2023-01-22T09:13:14.110Z,99906.81
2023-01-22T09:15:42.747Z,99905.59
2023-01-22T09:18:11.133Z,99899.13
2023-01-22T09:20:39.571Z,99901.63
2023-01-22T09:23:08.032Z,99913.13
2023-01-22T09:25:37.797Z,99909.56
2023-01-22T09:28:08.980Z,99904.97
2023-01-22T09:30:39.505Z,99912.09
2023-01-22T09:33:08.126Z,99904.75
2023-01-22T09:35:36.737Z,99913.75
2023-01-22T09:38:05.834Z,99912.72
2023-01-22T09:40:44.286Z,99909.78
2023-01-22T09:43:33.337Z,99906.03
2023-01-22T09:46:06.469Z,99904.94
2023-01-22T09:48:44.204Z,99904.94
2023-01-22T09:51:16.120Z,99905.78
2023-01-22T09:53:53.301Z,99912.91
2023-01-22T09:56:33.436Z,99909.34
2023-01-22T09:59:05.435Z,99901.81
2023-01-22T10:01:34.780Z,99905.16
2023-01-22T10:04:13.237Z,99913.75
2023-01-22T10:06:43.531Z,99911.66
2023-01-22T10:09:16.950Z,99918.34
2023-01-22T10:11:51.679Z,99927.34
2023-01-22T10:14:24.600Z,99920.63
2023-01-22T10:16:53.013Z,99930.03
2023-01-22T10:19:27.396Z,99929.81
2023-01-22T10:22:01.762Z,99925.22
2023-01-22T10:24:30.353Z,99926.47
2023-01-22T10:27:13.619Z,99926.25
2023-01-22T10:29:42.121Z,99923.31
2023-01-22T10:32:22.076Z,99933.38
2023-01-22T10:35:03.082Z,99939.88
2023-01-22T10:37:31.990Z,99931.72
2023-01-22T10:40:01.361Z,99933.59
2023-01-22T10:42:31.499Z,99937.16
2023-01-22T10:45:16.582Z,99937.34
2023-01-22T10:47:45.060Z,99941.75
2023-01-22T10:50:18.180Z,99930.88
2023-01-22T10:52:54.811Z,99934.19
2023-01-22T10:55:26.700Z,99935.88
2023-01-22T10:58:02.941Z,99933.56
2023-01-22T11:00:50.267Z,99935.25
2023-01-22T11:03:23.719Z,99932.94
2023-01-22T11:05:57.886Z,99932.50
2023-01-22T11:08:31.026Z,99926.81
2023-01-22T11:11:04.458Z,99929.97
2023-01-22T11:13:45.437Z,99932.84
2023-01-22T11:16:19.360Z,99936.63
2023-01-22T11:18:57.099Z,99928.66
2023-01-22T11:21:30.886Z,99928.41
2023-01-22T11:24:05.344Z,99919.84
2023-01-22T11:27:01.954Z,99935.28
2023-01-22T11:30:07.290Z,99925.88
2023-01-22T11:32:56.295Z,99925.00
2023-01-22T11:35:30.791Z,99912.22
2023-01-22T11:38:17.444Z,99916.78
2023-01-22T11:41:16.495Z,99921.94
2023-01-22T11:44:26.213Z,99927.59
2023-01-22T11:47:18.075Z,99925.06
2023-01-22T11:50:02.449Z,99926.28
2023-01-22T11:52:47.828Z,99925.25
2023-01-22T11:55:57.823Z,99936.09
2023-01-22T11:58:39.347Z,99931.25
2023-01-22T12:01:26.286Z,99923.91
2023-01-22T12:04:31.331Z,99928.28
2023-01-22T12:07:37.809Z,99942.56
2023-01-22T12:10:44.837Z,99936.47
2023-01-22T12:13:35.502Z,99939.78
2023-01-22T12:16:15.845Z,99940.34
2023-01-22T12:19:16.926Z,99927.34
2023-01-22T12:22:01.184Z,99939.69
2023-01-22T12:24:37.538Z,99945.75
2023-01-22T12:27:12.442Z,99943.03
2023-01-22T12:29:48.267Z,99937.19
2023-01-22T12:32:19.184Z,99942.44
2023-01-22T12:35:01.725Z,99948.28
2023-01-22T12:37:49.813Z,99945.09
2023-01-22T12:40:56.542Z,99943.22
2023-01-22T12:43:35.441Z,99942.59
2023-01-22T12:46:14.533Z,99952.91
2023-01-22T12:48:52.097Z,99964.66
2023-01-22T12:51:36.007Z,99959.19
2023-01-22T12:54:24.073Z,99966.72
2023-01-22T12:56:56.632Z,99963.81
2023-01-22T12:59:42.188Z,99966.31
2023-01-22T13:02:35.864Z,99974.25
2023-01-22T13:05:21.103Z,99972.97
2023-01-22T13:07:52.724Z,99977.56
2023-01-22T13:10:31.058Z,99971.88
2023-01-22T13:13:04.979Z,99975.22
2023-01-22T13:15:37.577Z,99983.41
2023-01-22T13:18:18.268Z,99979.03
2023-01-22T13:20:54.366Z,99985.09
2023-01-22T13:23:23.389Z,99987.34
2023-01-22T13:25:57.525Z,99985.69
2023-01-22T13:28:29.114Z,99992.44
2023-01-22T13:31:01.006Z,99998.78
2023-01-22T13:33:30.936Z,99997.50
2023-01-22T13:36:09.166Z,99997.56
2023-01-22T13:38:39.263Z,100002.63
2023-01-22T13:41:13.571Z,100009.56
2023-01-22T13:43:45.382Z,100004.31
2023-01-22T13:46:15.992Z,100014.63
2023-01-22T13:48:45.261Z,100016.31
2023-01-22T13:51:22.380Z,100021.75
2023-01-22T13:53:54.968Z,100021.13
2023-01-22T13:56:27.918Z,100025.75
2023-01-22T13:59:20.087Z,100027.03
2023-01-22T14:01:50.135Z,100024.91
2023-01-22T14:04:37.638Z,100024.47
2023-01-22T14:07:10.399Z,100032.00
2023-01-22T14:09:41.076Z,100030.72
2023-01-22T14:12:21.289Z,100046.44
2023-01-22T14:14:51.980Z,100048.78
2023-01-22T14:17:26.936Z,100044.00
2023-01-22T14:19:57.006Z,100041.06
2023-01-22T14:22:27.638Z,100049.91
2023-01-22T14:24:57.077Z,100054.31
2023-01-22T14:27:40.410Z,100056.03
2023-01-22T14:30:15.022Z,100050.38
2023-01-22T14:32:46.125Z,100056.06
2023-01-22T14:35:20.661Z,100060.25
2023-01-22T14:37:51.557Z,100064.66
2023-01-22T14:40:22.776Z,100069.06
2023-01-22T14:42:54.829Z,100069.69
2023-01-22T14:45:24.869Z,100075.75
2023-01-22T14:47:55.653Z,100081.19
2023-01-22T14:50:26.278Z,100085.81
2023-01-22T14:52:56.397Z,100080.34
2023-01-22T14:55:28.698Z,100079.75
2023-01-22T14:58:00.498Z,100078.28
2023-01-22T15:00:30.818Z,100082.25
2023-01-22T15:03:01.601Z,100085.22
2023-01-22T15:05:31.107Z,100089.19
2023-01-22T15:08:02.005Z,100099.03
2023-01-22T15:10:32.250Z,100093.81
2023-01-22T15:13:03.984Z,100100.72
2023-01-22T15:15:33.323Z,100102.41
2023-01-22T15:18:04.205Z,100105.75
2023-01-22T15:20:33.635Z,100100.06
2023-01-22T15:23:03.718Z,100104.25
2023-01-22T15:25:33.395Z,100110.09
2023-01-22T15:28:05.908Z,100114.75
2023-01-22T15:30:34.714Z,100112.41
2023-01-22T15:33:05.323Z,100099.41
2023-01-22T15:35:35.877Z,100097.53
2023-01-22T15:38:05.513Z,100093.97
2023-01-22T15:40:37.213Z,100097.75
2023-01-22T15:43:09.976Z,100110.53
2023-01-22T15:45:42.193Z,100127.06
2023-01-22T15:48:14.073Z,100145.97
2023-01-22T15:50:43.076Z,100145.13
2023-01-22T15:53:12.993Z,100149.53
2023-01-22T15:55:42.805Z,100159.34
2023-01-22T15:58:15.834Z,100157.69
2023-01-22T16:00:45.974Z,100149.53
2023-01-22T16:03:16.802Z,100154.31
2023-01-22T16:05:46.543Z,100148.69
2023-01-22T16:08:16.396Z,100160.63
2023-01-22T16:10:46.773Z,100162.50
2023-01-22T16:13:18.131Z,100157.50
2023-01-22T16:15:57.927Z,100159.16
2023-01-22T16:18:27.968Z,100159.16
2023-01-22T16:21:02.520Z,100166.50
2023-01-22T16:23:33.241Z,100168.78
2023-01-22T16:26:05.732Z,100183.03
2023-01-22T16:28:36.741Z,100181.78
2023-01-22T16:31:06.820Z,100195.22
2023-01-22T16:33:38.277Z,100186.19
2023-01-22T16:36:12.593Z,100183.69
2023-01-22T16:38:43.643Z,100182.63
2023-01-22T16:41:28.095Z,100179.28
2023-01-22T16:44:02.292Z,100180.31
2023-01-22T16:46:35.859Z,100182.22
2023-01-22T16:49:08.553Z,100183.50
2023-01-22T16:51:41.482Z,100188.31
2023-01-22T16:54:17.503Z,100191.22
2023-01-22T16:56:47.218Z,100183.28
2023-01-22T16:59:19.934Z,100188.72
2023-01-22T17:01:51.936Z,100200.47
2023-01-22T17:04:22.745Z,100208.81
2023-01-22T17:06:54.757Z,100215.31
2023-01-22T17:09:27.181Z,100213.03
2023-01-22T17:12:00.335Z,100207.13
2023-01-22T17:14:35.840Z,100218.25
2023-01-22T17:17:08.278Z,100222.66
2023-01-22T17:19:40.018Z,100222.44
2023-01-22T17:22:10.908Z,100217.81
2023-01-22T17:24:44.773Z,100223.06
2023-01-22T17:27:18.888Z,100221.78
2023-01-22T17:29:50.307Z,100222.41
2023-01-22T17:32:22.597Z,100223.25
2023-01-22T17:34:54.235Z,100232.47
2023-01-22T17:37:24.512Z,100232.69
2023-01-22T17:39:54.162Z,100237.31
2023-01-22T17:42:24.415Z,100234.56
2023-01-22T17:44:55.492Z,100236.06
2023-01-22T17:47:25.994Z,100242.56
2023-01-22T17:49:57.266Z,100251.78
2023-01-22T17:52:28.762Z,100256.19
2023-01-22T17:55:00.649Z,100258.91
2023-01-22T17:57:31.083Z,100261.00
2023-01-22T18:00:02.771Z,100252.81
2023-01-22T18:02:38.363Z,100262.47
2023-01-22T18:05:10.454Z,100262.69
2023-01-22T18:07:43.405Z,100265.81
2023-01-22T18:10:16.625Z,100270.88
2023-01-22T18:12:46.743Z,100280.31
2023-01-22T18:15:18.527Z,100276.75
2023-01-22T18:17:49.410Z,100282.41
2023-01-22T18:20:21.719Z,100286.19
2023-01-22T18:22:51.809Z,100280.94
2023-01-22T18:25:22.175Z,100281.16
2023-01-22T18:27:53.958Z,100284.72
2023-01-22T18:30:27.253Z,100301.91
2023-01-22T18:32:57.515Z,100303.38
2023-01-22T18:35:28.293Z,100296.03
2023-01-22T18:38:00.468Z,100305.88
2023-01-22T18:40:33.788Z,100311.34
2023-01-22T18:43:07.383Z,100320.97
2023-01-22T18:45:42.140Z,100313.66
2023-01-22T18:48:15.984Z,100317.84
2023-01-22T18:50:53.903Z,100325.38
2023-01-22T18:53:24.591Z,100321.19
2023-01-22T18:55:58.301Z,100310.91
2023-01-22T18:58:34.415Z,100318.44
2023-01-22T19:01:13.706Z,100317.63
2023-01-22T19:03:49.457Z,100317.63
2023-01-22T19:06:23.190Z,100316.97
2023-01-22T19:08:59.086Z,100320.78
2023-01-22T19:11:29.720Z,100321.81
2023-01-22T19:14:00.999Z,100326.44
2023-01-22T19:16:32.695Z,100327.25
2023-01-22T19:19:05.387Z,100329.16
2023-01-22T19:21:35.621Z,100337.34
2023-01-22T19:24:07.179Z,100333.78
2023-01-22T19:26:39.964Z,100345.53
2023-01-22T19:29:14.746Z,100340.06
2023-01-22T19:31:48.476Z,100336.69
2023-01-22T19:34:24.059Z,100335.25
2023-01-22T19:36:57.657Z,100339.44
2023-01-22T19:39:29.293Z,100341.75
2023-01-22T19:42:03.283Z,100339.44
2023-01-22T19:44:35.643Z,100333.56
2023-01-22T19:47:07.972Z,100332.50
2023-01-22T19:49:41.081Z,100328.94
2023-01-22T19:52:16.687Z,100339.03
2023-01-22T19:54:48.838Z,100349.50
2023-01-22T19:57:19.262Z,100352.66
2023-01-22T19:59:53.527Z,100360.00
2023-01-22T20:02:27.713Z,100365.22
2023-01-22T20:04:58.386Z,100362.28
2023-01-22T20:07:29.139Z,100371.09
2023-01-22T20:10:01.290Z,100374.47
2023-01-22T20:12:31.483Z,100392.28
2023-01-22T20:15:02.041Z,100397.53
2023-01-22T20:17:37.213Z,100409.06
2023-01-22T20:20:08.848Z,100408.66
2023-01-22T20:22:42.762Z,100404.44
2023-01-22T20:25:14.563Z,100399.63
2023-01-22T20:27:45.153Z,100394.16
2023-01-22T20:30:15.785Z,100397.13
2023-01-22T20:32:48.003Z,100389.97
2023-01-22T20:35:19.815Z,100389.97
2023-01-22T20:37:50.018Z,100395.22
2023-01-22T20:40:21.162Z,100415.97
2023-01-22T20:42:57.350Z,100412.84
2023-01-22T20:45:28.321Z,100405.06
2023-01-22T20:48:00.496Z,100403.19
2023-01-22T20:50:32.332Z,100413.69
2023-01-22T20:53:06.443Z,100419.78
2023-01-22T20:55:37.951Z,100414.31
2023-01-22T20:58:08.645Z,100429.84
2023-01-22T21:00:40.333Z,100432.16
2023-01-22T21:03:12.825Z,100418.06
2023-01-22T21:05:43.673Z,100410.75
2023-01-22T21:08:15.502Z,100409.88
2023-01-22T21:10:56.529Z,100410.34
2023-01-22T21:13:31.412Z,100411.81
2023-01-22T21:16:09.888Z,100404.44
2023-01-22T21:18:45.048Z,100411.16
2023-01-22T21:21:18.195Z,100397.13
2023-01-22T21:23:49.986Z,100403.81
2023-01-22T21:26:22.959Z,100419.56
2023-01-22T21:28:54.988Z,100420.19
2023-01-22T21:31:26.230Z,100430.88
2023-01-22T21:34:03.616Z,100438.84
2023-01-22T21:36:36.718Z,100442.22
2023-01-22T21:39:08.558Z,100448.28
2023-01-22T21:41:40.032Z,100455.41
2023-01-22T21:44:29.001Z,100449.94
2023-01-22T21:46:57.987Z,100454.59
2023-01-22T21:49:28.913Z,100457.94
2023-01-22T21:52:01.202Z,100465.50
2023-01-22T21:54:34.799Z,100457.53
2023-01-22T21:57:04.118Z,100460.03
2023-01-22T21:59:33.386Z,100453.53
2023-01-22T22:02:02.155Z,100461.53
2023-01-22T22:04:32.527Z,100454.19
2023-01-22T22:07:01.121Z,100449.13
2023-01-22T22:09:30.746Z,100451.66
2023-01-22T22:12:01.192Z,100456.69
2023-01-22T22:14:30.435Z,100452.94
2023-01-22T22:16:59.204Z,100453.56
2023-01-22T22:19:28.934Z,100464.47
2023-01-22T22:21:58.853Z,100464.66
2023-01-22T22:24:27.278Z,100459.19
2023-01-22T22:26:55.792Z,100458.16
2023-01-22T22:29:24.223Z,100455.84
2023-01-22T22:31:52.704Z,100463.41
2023-01-22T22:34:21.212Z,100474.53
2023-01-22T22:36:49.647Z,100482.50
2023-01-22T22:39:19.460Z,100486.69
2023-01-22T22:41:47.867Z,100492.78
2023-01-22T22:44:17.607Z,100496.97
2023-01-22T22:46:46.038Z,100498.84
2023-01-22T22:49:15.204Z,100500.72
2023-01-22T22:51:44.995Z,100501.78
2023-01-22T22:54:16.731Z,100500.94
2023-01-22T22:56:48.750Z,100506.19
2023-01-22T22:59:19.826Z,100501.38
2023-01-22T23:01:49.213Z,100512.72
2023-01-22T23:04:18.298Z,100509.56
2023-01-22T23:06:47.849Z,100504.75
2023-01-22T23:09:19.541Z,100499.06
2023-01-22T23:11:52.166Z,100499.94
2023-01-22T23:14:20.742Z,100499.06
2023-01-22T23:16:50.192Z,100497.81
2023-01-22T23:19:21.382Z,100490.66
2023-01-22T23:21:52.036Z,100492.31
2023-01-22T23:24:20.762Z,100496.75
2023-01-22T23:26:51.463Z,100497.38
2023-01-22T23:29:24.453Z,100488.97
2023-01-22T23:31:53.121Z,100478.66
2023-01-22T23:34:23.159Z,100488.31
2023-01-22T23:36:52.519Z,100486.41
2023-01-22T23:39:22.756Z,100492.72
2023-01-22T23:41:52.572Z,100482.88
2023-01-22T23:44:20.980Z,100497.31
2023-01-22T23:46:49.404Z,100494.81
2023-01-22T23:49:17.795Z,100497.31
2023-01-22T23:51:46.223Z,100489.78
2023-01-22T23:54:14.726Z,100497.13
2023-01-22T23:56:43.295Z,100489.13
2023-01-22T23:59:13.573Z,100494.59
